sensor_id;sensor_type;location;lat;lon;timestamp;P1;durP1;ratioP1;P2;durP2;ratioP2
21777;SDS011;11050;52.222;20.916;2023-08-17T00:00:25;17.50;;;13.70;;
21777;SDS011;11050;52.222;20.916;2023-08-17T00:02:50;15.07;;;13.27;;
21777;SDS011;11050;52.222;20.916;2023-08-17T00:05:16;15.88;;;13.77;;
21777;SDS011;11050;52.222;20.916;2023-08-17T00:07:42;16.67;;;14.35;;
21777;SDS011;11050;52.222;20.916;2023-08-17T00:10:08;20.50;;;14.50;;
21777;SDS011;11050;52.222;20.916;2023-08-17T00:12:34;15.68;;;13.85;;
21777;SDS011;11050;52.222;20.916;2023-08-17T00:14:59;16.30;;;13.55;;
21777;SDS011;11050;52.222;20.916;2023-08-17T00:17:25;16.77;;;14.27;;
21777;SDS011;11050;52.222;20.916;2023-08-17T00:19:51;17.60;;;14.30;;
21777;SDS011;11050;52.222;20.916;2023-08-17T00:22:16;20.67;;;14.50;;
21777;SDS011;11050;52.222;20.916;2023-08-17T00:24:42;17.50;;;14.50;;
21777;SDS011;11050;52.222;20.916;2023-08-17T00:27:10;17.17;;;14.40;;
21777;SDS011;11050;52.222;20.916;2023-08-17T00:29:36;20.67;;;14.90;;
21777;SDS011;11050;52.222;20.916;2023-08-17T00:32:02;15.70;;;13.88;;
21777;SDS011;11050;52.222;20.916;2023-08-17T00:34:28;16.88;;;14.32;;
21777;SDS011;11050;52.222;20.916;2023-08-17T00:36:54;17.40;;;13.70;;
21777;SDS011;11050;52.222;20.916;2023-08-17T00:39:20;15.82;;;13.88;;
21777;SDS011;11050;52.222;20.916;2023-08-17T00:41:45;18.90;;;15.10;;
21777;SDS011;11050;52.222;20.916;2023-08-17T00:44:11;16.83;;;13.93;;
21777;SDS011;11050;52.222;20.916;2023-08-17T00:46:37;17.70;;;14.82;;
21777;SDS011;11050;52.222;20.916;2023-08-17T00:49:04;17.30;;;14.77;;
21777;SDS011;11050;52.222;20.916;2023-08-17T00:51:31;17.73;;;15.60;;
21777;SDS011;11050;52.222;20.916;2023-08-17T00:53:58;17.55;;;15.27;;
21777;SDS011;11050;52.222;20.916;2023-08-17T00:56:26;19.40;;;15.13;;
21777;SDS011;11050;52.222;20.916;2023-08-17T00:58:53;23.00;;;16.23;;
21777;SDS011;11050;52.222;20.916;2023-08-17T01:01:19;17.25;;;15.45;;
21777;SDS011;11050;52.222;20.916;2023-08-17T01:03:45;20.40;;;15.23;;
21777;SDS011;11050;52.222;20.916;2023-08-17T01:06:11;16.55;;;14.82;;
21777;SDS011;11050;52.222;20.916;2023-08-17T01:08:37;18.48;;;15.27;;
21777;SDS011;11050;52.222;20.916;2023-08-17T01:11:11;16.33;;;14.82;;
21777;SDS011;11050;52.222;20.916;2023-08-17T01:14:05;18.83;;;15.18;;
21777;SDS011;11050;52.222;20.916;2023-08-17T01:16:52;18.48;;;15.20;;
21777;SDS011;11050;52.222;20.916;2023-08-17T01:19:36;17.90;;;14.73;;
21777;SDS011;11050;52.222;20.916;2023-08-17T01:22:04;17.83;;;15.57;;
21777;SDS011;11050;52.222;20.916;2023-08-17T01:24:33;17.58;;;14.82;;
21777;SDS011;11050;52.222;20.916;2023-08-17T01:26:59;16.95;;;14.95;;
21777;SDS011;11050;52.222;20.916;2023-08-17T01:29:25;16.98;;;14.57;;
21777;SDS011;11050;52.222;20.916;2023-08-17T01:34:36;22.48;;;14.85;;
21777;SDS011;11050;52.222;20.916;2023-08-17T01:37:20;17.50;;;15.52;;
21777;SDS011;11050;52.222;20.916;2023-08-17T01:39:51;19.48;;;15.82;;
21777;SDS011;11050;52.222;20.916;2023-08-17T01:42:21;17.88;;;15.40;;
21777;SDS011;11050;52.222;20.916;2023-08-17T01:44:49;18.02;;;15.65;;
21777;SDS011;11050;52.222;20.916;2023-08-17T01:47:15;19.23;;;16.35;;
21777;SDS011;11050;52.222;20.916;2023-08-17T01:49:46;19.60;;;16.33;;
21777;SDS011;11050;52.222;20.916;2023-08-17T01:52:12;17.10;;;15.18;;
21777;SDS011;11050;52.222;20.916;2023-08-17T01:54:37;19.98;;;15.55;;
21777;SDS011;11050;52.222;20.916;2023-08-17T01:57:03;17.90;;;15.40;;
21777;SDS011;11050;52.222;20.916;2023-08-17T01:59:29;17.50;;;15.70;;
21777;SDS011;11050;52.222;20.916;2023-08-17T02:01:54;23.88;;;16.92;;
21777;SDS011;11050;52.222;20.916;2023-08-17T02:04:20;19.85;;;16.42;;
21777;SDS011;11050;52.222;20.916;2023-08-17T02:06:46;18.63;;;15.48;;
21777;SDS011;11050;52.222;20.916;2023-08-17T02:09:11;16.90;;;14.95;;
21777;SDS011;11050;52.222;20.916;2023-08-17T02:11:37;16.98;;;15.27;;
21777;SDS011;11050;52.222;20.916;2023-08-17T02:14:02;18.73;;;15.02;;
21777;SDS011;11050;52.222;20.916;2023-08-17T02:16:28;19.67;;;15.90;;
21777;SDS011;11050;52.222;20.916;2023-08-17T02:18:54;17.55;;;15.70;;
21777;SDS011;11050;52.222;20.916;2023-08-17T02:21:19;16.95;;;15.25;;
21777;SDS011;11050;52.222;20.916;2023-08-17T02:23:45;19.33;;;15.73;;
21777;SDS011;11050;52.222;20.916;2023-08-17T02:26:11;19.13;;;16.05;;
21777;SDS011;11050;52.222;20.916;2023-08-17T02:28:36;19.33;;;15.93;;
21777;SDS011;11050;52.222;20.916;2023-08-17T02:31:02;19.38;;;16.35;;
21777;SDS011;11050;52.222;20.916;2023-08-17T02:33:28;17.30;;;14.88;;
21777;SDS011;11050;52.222;20.916;2023-08-17T02:35:53;17.90;;;15.07;;
21777;SDS011;11050;52.222;20.916;2023-08-17T02:38:19;19.02;;;15.00;;
21777;SDS011;11050;52.222;20.916;2023-08-17T02:40:45;17.88;;;15.50;;
21777;SDS011;11050;52.222;20.916;2023-08-17T02:43:10;17.70;;;15.95;;
21777;SDS011;11050;52.222;20.916;2023-08-17T02:45:36;22.58;;;16.30;;
21777;SDS011;11050;52.222;20.916;2023-08-17T02:48:02;21.15;;;15.13;;
21777;SDS011;11050;52.222;20.916;2023-08-17T02:50:28;18.23;;;16.25;;
21777;SDS011;11050;52.222;20.916;2023-08-17T02:52:53;17.67;;;14.85;;
21777;SDS011;11050;52.222;20.916;2023-08-17T02:55:19;17.80;;;15.27;;
21777;SDS011;11050;52.222;20.916;2023-08-17T02:57:45;17.20;;;15.38;;
21777;SDS011;11050;52.222;20.916;2023-08-17T03:00:10;17.90;;;15.50;;
21777;SDS011;11050;52.222;20.916;2023-08-17T03:02:37;18.33;;;14.98;;
21777;SDS011;11050;52.222;20.916;2023-08-17T03:05:03;20.95;;;15.45;;
21777;SDS011;11050;52.222;20.916;2023-08-17T03:07:28;21.17;;;15.35;;
21777;SDS011;11050;52.222;20.916;2023-08-17T03:09:54;21.63;;;15.50;;
21777;SDS011;11050;52.222;20.916;2023-08-17T03:12:20;19.33;;;15.55;;
21777;SDS011;11050;52.222;20.916;2023-08-17T03:14:45;20.42;;;15.85;;
21777;SDS011;11050;52.222;20.916;2023-08-17T03:17:11;22.05;;;16.02;;
21777;SDS011;11050;52.222;20.916;2023-08-17T03:19:37;20.70;;;15.18;;
21777;SDS011;11050;52.222;20.916;2023-08-17T03:22:02;16.80;;;14.98;;
21777;SDS011;11050;52.222;20.916;2023-08-17T03:24:28;17.77;;;15.45;;
21777;SDS011;11050;52.222;20.916;2023-08-17T03:26:54;18.73;;;16.27;;
21777;SDS011;11050;52.222;20.916;2023-08-17T03:29:19;21.77;;;16.98;;
21777;SDS011;11050;52.222;20.916;2023-08-17T03:31:45;19.15;;;17.00;;
21777;SDS011;11050;52.222;20.916;2023-08-17T03:34:11;22.08;;;15.95;;
21777;SDS011;11050;52.222;20.916;2023-08-17T03:36:36;19.73;;;15.60;;
21777;SDS011;11050;52.222;20.916;2023-08-17T03:39:02;18.02;;;15.65;;
21777;SDS011;11050;52.222;20.916;2023-08-17T03:41:28;21.90;;;15.85;;
21777;SDS011;11050;52.222;20.916;2023-08-17T03:43:55;20.58;;;16.17;;
21777;SDS011;11050;52.222;20.916;2023-08-17T03:46:20;19.75;;;15.63;;
21777;SDS011;11050;52.222;20.916;2023-08-17T03:48:46;17.63;;;15.52;;
21777;SDS011;11050;52.222;20.916;2023-08-17T03:51:12;18.67;;;16.67;;
21777;SDS011;11050;52.222;20.916;2023-08-17T03:53:38;19.88;;;15.93;;
21777;SDS011;11050;52.222;20.916;2023-08-17T03:56:03;18.63;;;16.50;;
21777;SDS011;11050;52.222;20.916;2023-08-17T03:58:29;18.95;;;15.57;;
21777;SDS011;11050;52.222;20.916;2023-08-17T04:00:59;21.58;;;16.70;;
21777;SDS011;11050;52.222;20.916;2023-08-17T04:03:25;18.48;;;15.70;;
21777;SDS011;11050;52.222;20.916;2023-08-17T04:05:51;17.55;;;15.35;;
21777;SDS011;11050;52.222;20.916;2023-08-17T04:08:16;22.90;;;16.42;;
21777;SDS011;11050;52.222;20.916;2023-08-17T04:10:42;21.15;;;15.05;;
21777;SDS011;11050;52.222;20.916;2023-08-17T04:13:07;21.42;;;15.93;;
21777;SDS011;11050;52.222;20.916;2023-08-17T04:15:33;17.38;;;15.38;;
21777;SDS011;11050;52.222;20.916;2023-08-17T04:17:59;18.50;;;15.75;;
21777;SDS011;11050;52.222;20.916;2023-08-17T04:20:24;19.95;;;15.02;;
21777;SDS011;11050;52.222;20.916;2023-08-17T04:22:50;19.15;;;13.68;;
21777;SDS011;11050;52.222;20.916;2023-08-17T04:25:16;20.45;;;14.73;;
21777;SDS011;11050;52.222;20.916;2023-08-17T04:27:42;20.23;;;14.38;;
21777;SDS011;11050;52.222;20.916;2023-08-17T04:30:08;16.70;;;13.98;;
21777;SDS011;11050;52.222;20.916;2023-08-17T04:32:35;24.75;;;14.75;;
21777;SDS011;11050;52.222;20.916;2023-08-17T04:35:00;19.63;;;13.88;;
21777;SDS011;11050;52.222;20.916;2023-08-17T04:37:26;21.08;;;14.68;;
21777;SDS011;11050;52.222;20.916;2023-08-17T04:39:52;15.15;;;13.55;;
21777;SDS011;11050;52.222;20.916;2023-08-17T04:42:17;22.77;;;13.90;;
21777;SDS011;11050;52.222;20.916;2023-08-17T04:44:45;15.20;;;13.18;;
21777;SDS011;11050;52.222;20.916;2023-08-17T04:47:11;16.42;;;13.65;;
21777;SDS011;11050;52.222;20.916;2023-08-17T04:49:37;17.02;;;12.18;;
21777;SDS011;11050;52.222;20.916;2023-08-17T04:52:03;15.60;;;13.23;;
21777;SDS011;11050;52.222;20.916;2023-08-17T04:54:29;13.82;;;12.30;;
21777;SDS011;11050;52.222;20.916;2023-08-17T04:56:54;15.38;;;11.98;;
21777;SDS011;11050;52.222;20.916;2023-08-17T04:59:20;16.55;;;11.32;;
21777;SDS011;11050;52.222;20.916;2023-08-17T05:01:46;17.80;;;11.93;;
21777;SDS011;11050;52.222;20.916;2023-08-17T05:04:12;17.58;;;11.95;;
21777;SDS011;11050;52.222;20.916;2023-08-17T05:06:37;17.50;;;11.57;;
21777;SDS011;11050;52.222;20.916;2023-08-17T05:09:03;21.77;;;12.68;;
21777;SDS011;11050;52.222;20.916;2023-08-17T05:11:30;24.45;;;12.38;;
21777;SDS011;11050;52.222;20.916;2023-08-17T05:13:56;21.38;;;12.05;;
21777;SDS011;11050;52.222;20.916;2023-08-17T05:16:22;23.98;;;11.65;;
21777;SDS011;11050;52.222;20.916;2023-08-17T05:18:48;19.17;;;11.52;;
21777;SDS011;11050;52.222;20.916;2023-08-17T05:21:14;24.60;;;12.05;;
21777;SDS011;11050;52.222;20.916;2023-08-17T05:23:39;23.77;;;10.90;;
21777;SDS011;11050;52.222;20.916;2023-08-17T05:26:05;16.70;;;11.40;;
21777;SDS011;11050;52.222;20.916;2023-08-17T05:28:30;12.32;;;10.18;;
21777;SDS011;11050;52.222;20.916;2023-08-17T05:31:02;20.38;;;10.75;;
21777;SDS011;11050;52.222;20.916;2023-08-17T05:33:32;23.13;;;11.57;;
21777;SDS011;11050;52.222;20.916;2023-08-17T05:35:57;13.85;;;10.55;;
21777;SDS011;11050;52.222;20.916;2023-08-17T05:38:23;19.73;;;10.77;;
21777;SDS011;11050;52.222;20.916;2023-08-17T05:40:54;19.83;;;11.40;;
21777;SDS011;11050;52.222;20.916;2023-08-17T05:43:23;15.73;;;10.50;;
21777;SDS011;11050;52.222;20.916;2023-08-17T05:45:50;19.50;;;11.02;;
21777;SDS011;11050;52.222;20.916;2023-08-17T05:48:18;18.45;;;10.43;;
21777;SDS011;11050;52.222;20.916;2023-08-17T05:50:45;21.23;;;9.75;;
21777;SDS011;11050;52.222;20.916;2023-08-17T05:53:12;18.05;;;10.70;;
21777;SDS011;11050;52.222;20.916;2023-08-17T05:55:37;16.85;;;10.02;;
21777;SDS011;11050;52.222;20.916;2023-08-17T05:58:03;14.90;;;11.05;;
21777;SDS011;11050;52.222;20.916;2023-08-17T06:00:29;19.70;;;10.88;;
21777;SDS011;11050;52.222;20.916;2023-08-17T06:02:55;16.50;;;10.60;;
21777;SDS011;11050;52.222;20.916;2023-08-17T06:05:26;16.98;;;10.57;;
21777;SDS011;11050;52.222;20.916;2023-08-17T06:07:53;17.55;;;10.23;;
21777;SDS011;11050;52.222;20.916;2023-08-17T06:10:25;18.38;;;10.80;;
21777;SDS011;11050;52.222;20.916;2023-08-17T06:12:55;16.30;;;10.48;;
21777;SDS011;11050;52.222;20.916;2023-08-17T06:15:21;14.55;;;11.05;;
21777;SDS011;11050;52.222;20.916;2023-08-17T06:17:48;23.75;;;10.85;;
21777;SDS011;11050;52.222;20.916;2023-08-17T06:20:17;18.25;;;10.48;;
21777;SDS011;11050;52.222;20.916;2023-08-17T06:22:43;17.67;;;10.18;;
21777;SDS011;11050;52.222;20.916;2023-08-17T06:25:10;28.15;;;10.63;;
21777;SDS011;11050;52.222;20.916;2023-08-17T06:27:35;20.95;;;10.48;;
21777;SDS011;11050;52.222;20.916;2023-08-17T06:30:02;13.93;;;9.98;;
21777;SDS011;11050;52.222;20.916;2023-08-17T06:32:32;14.93;;;9.68;;
21777;SDS011;11050;52.222;20.916;2023-08-17T06:34:57;17.65;;;9.90;;
21777;SDS011;11050;52.222;20.916;2023-08-17T06:37:23;16.45;;;9.77;;
21777;SDS011;11050;52.222;20.916;2023-08-17T06:39:49;16.35;;;10.48;;
21777;SDS011;11050;52.222;20.916;2023-08-17T06:42:15;14.27;;;9.60;;
21777;SDS011;11050;52.222;20.916;2023-08-17T06:44:40;15.68;;;10.50;;
21777;SDS011;11050;52.222;20.916;2023-08-17T06:47:06;15.13;;;9.70;;
21777;SDS011;11050;52.222;20.916;2023-08-17T06:49:31;19.20;;;10.50;;
21777;SDS011;11050;52.222;20.916;2023-08-17T06:51:57;17.10;;;9.93;;
21777;SDS011;11050;52.222;20.916;2023-08-17T06:54:23;17.42;;;10.20;;
21777;SDS011;11050;52.222;20.916;2023-08-17T06:56:48;15.45;;;9.55;;
21777;SDS011;11050;52.222;20.916;2023-08-17T06:59:14;15.38;;;10.07;;
21777;SDS011;11050;52.222;20.916;2023-08-17T07:01:40;13.68;;;10.07;;
21777;SDS011;11050;52.222;20.916;2023-08-17T07:04:05;14.43;;;10.40;;
21777;SDS011;11050;52.222;20.916;2023-08-17T07:06:31;15.80;;;11.02;;
21777;SDS011;11050;52.222;20.916;2023-08-17T07:08:57;16.00;;;10.48;;
21777;SDS011;11050;52.222;20.916;2023-08-17T07:11:22;18.55;;;10.43;;
21777;SDS011;11050;52.222;20.916;2023-08-17T07:13:49;14.52;;;10.18;;
21777;SDS011;11050;52.222;20.916;2023-08-17T07:16:14;11.93;;;10.30;;
21777;SDS011;11050;52.222;20.916;2023-08-17T07:18:40;18.00;;;11.07;;
21777;SDS011;11050;52.222;20.916;2023-08-17T07:21:06;20.35;;;10.73;;
21777;SDS011;11050;52.222;20.916;2023-08-17T07:23:31;18.08;;;10.35;;
21777;SDS011;11050;52.222;20.916;2023-08-17T07:25:57;19.80;;;10.32;;
21777;SDS011;11050;52.222;20.916;2023-08-17T07:28:23;17.10;;;10.70;;
21777;SDS011;11050;52.222;20.916;2023-08-17T07:30:49;17.25;;;10.77;;
21777;SDS011;11050;52.222;20.916;2023-08-17T07:33:14;13.38;;;10.57;;
21777;SDS011;11050;52.222;20.916;2023-08-17T07:35:40;11.65;;;10.45;;
21777;SDS011;11050;52.222;20.916;2023-08-17T07:38:06;17.75;;;10.75;;
21777;SDS011;11050;52.222;20.916;2023-08-17T07:40:31;21.33;;;10.68;;
21777;SDS011;11050;52.222;20.916;2023-08-17T07:42:57;17.42;;;10.18;;
21777;SDS011;11050;52.222;20.916;2023-08-17T07:45:23;14.93;;;9.63;;
21777;SDS011;11050;52.222;20.916;2023-08-17T07:47:48;13.88;;;10.27;;
21777;SDS011;11050;52.222;20.916;2023-08-17T07:50:14;14.25;;;9.90;;
21777;SDS011;11050;52.222;20.916;2023-08-17T07:52:40;12.15;;;9.85;;
21777;SDS011;11050;52.222;20.916;2023-08-17T07:55:06;11.35;;;10.15;;
21777;SDS011;11050;52.222;20.916;2023-08-17T07:57:31;12.70;;;9.77;;
21777;SDS011;11050;52.222;20.916;2023-08-17T07:59:57;12.02;;;9.60;;
21777;SDS011;11050;52.222;20.916;2023-08-17T08:02:23;11.48;;;10.40;;
21777;SDS011;11050;52.222;20.916;2023-08-17T08:04:48;11.70;;;9.10;;
21777;SDS011;11050;52.222;20.916;2023-08-17T08:07:14;22.65;;;9.90;;
21777;SDS011;11050;52.222;20.916;2023-08-17T08:09:40;13.60;;;9.57;;
21777;SDS011;11050;52.222;20.916;2023-08-17T08:12:05;14.23;;;9.65;;
21777;SDS011;11050;52.222;20.916;2023-08-17T08:14:33;14.77;;;10.30;;
21777;SDS011;11050;52.222;20.916;2023-08-17T08:16:59;17.85;;;10.15;;
21777;SDS011;11050;52.222;20.916;2023-08-17T08:19:25;18.05;;;10.50;;
21777;SDS011;11050;52.222;20.916;2023-08-17T08:21:51;22.35;;;10.52;;
21777;SDS011;11050;52.222;20.916;2023-08-17T08:24:16;18.08;;;10.75;;
21777;SDS011;11050;52.222;20.916;2023-08-17T08:26:42;32.08;;;11.05;;
21777;SDS011;11050;52.222;20.916;2023-08-17T08:29:08;19.25;;;9.82;;
21777;SDS011;11050;52.222;20.916;2023-08-17T08:31:34;16.00;;;10.43;;
21777;SDS011;11050;52.222;20.916;2023-08-17T08:34:00;12.73;;;10.27;;
21777;SDS011;11050;52.222;20.916;2023-08-17T08:36:26;13.15;;;9.90;;
21777;SDS011;11050;52.222;20.916;2023-08-17T08:38:51;22.65;;;10.00;;
21777;SDS011;11050;52.222;20.916;2023-08-17T08:41:17;12.52;;;9.50;;
21777;SDS011;11050;52.222;20.916;2023-08-17T08:43:44;15.98;;;9.77;;
21777;SDS011;11050;52.222;20.916;2023-08-17T08:46:10;15.65;;;10.10;;
21777;SDS011;11050;52.222;20.916;2023-08-17T08:48:38;16.30;;;10.38;;
21777;SDS011;11050;52.222;20.916;2023-08-17T08:51:07;14.48;;;9.90;;
21777;SDS011;11050;52.222;20.916;2023-08-17T08:53:43;15.10;;;10.90;;
21777;SDS011;11050;52.222;20.916;2023-08-17T08:56:11;12.93;;;10.38;;
21777;SDS011;11050;52.222;20.916;2023-08-17T08:58:38;19.33;;;11.05;;
21777;SDS011;11050;52.222;20.916;2023-08-17T09:01:07;15.15;;;11.20;;
21777;SDS011;11050;52.222;20.916;2023-08-17T09:03:35;13.82;;;11.15;;
21777;SDS011;11050;52.222;20.916;2023-08-17T09:06:01;14.93;;;10.57;;
21777;SDS011;11050;52.222;20.916;2023-08-17T09:08:29;14.32;;;11.02;;
21777;SDS011;11050;52.222;20.916;2023-08-17T09:10:56;13.27;;;11.60;;
21777;SDS011;11050;52.222;20.916;2023-08-17T09:13:22;16.30;;;11.15;;
21777;SDS011;11050;52.222;20.916;2023-08-17T09:15:48;14.30;;;11.10;;
21777;SDS011;11050;52.222;20.916;2023-08-17T09:18:14;18.33;;;11.18;;
21777;SDS011;11050;52.222;20.916;2023-08-17T09:20:42;15.93;;;11.57;;
21777;SDS011;11050;52.222;20.916;2023-08-17T09:23:11;16.40;;;11.23;;
21777;SDS011;11050;52.222;20.916;2023-08-17T09:25:47;20.23;;;11.75;;
21777;SDS011;11050;52.222;20.916;2023-08-17T09:28:17;15.07;;;11.48;;
21777;SDS011;11050;52.222;20.916;2023-08-17T09:31:00;18.42;;;11.95;;
21777;SDS011;11050;52.222;20.916;2023-08-17T09:33:32;12.93;;;10.45;;
21777;SDS011;11050;52.222;20.916;2023-08-17T09:35:58;15.43;;;10.80;;
21777;SDS011;11050;52.222;20.916;2023-08-17T09:38:25;16.60;;;10.60;;
21777;SDS011;11050;52.222;20.916;2023-08-17T09:40:54;13.02;;;10.52;;
21777;SDS011;11050;52.222;20.916;2023-08-17T09:43:21;15.05;;;10.27;;
21777;SDS011;11050;52.222;20.916;2023-08-17T09:45:48;13.27;;;9.82;;
21777;SDS011;11050;52.222;20.916;2023-08-17T09:48:18;13.05;;;10.77;;
21777;SDS011;11050;52.222;20.916;2023-08-17T09:50:45;11.05;;;9.50;;
21777;SDS011;11050;52.222;20.916;2023-08-17T09:53:13;15.40;;;10.85;;
21777;SDS011;11050;52.222;20.916;2023-08-17T09:55:44;13.48;;;10.73;;
21777;SDS011;11050;52.222;20.916;2023-08-17T09:58:11;14.23;;;10.55;;
21777;SDS011;11050;52.222;20.916;2023-08-17T10:00:40;12.77;;;10.23;;
21777;SDS011;11050;52.222;20.916;2023-08-17T10:03:16;10.68;;;9.65;;
21777;SDS011;11050;52.222;20.916;2023-08-17T10:05:46;11.15;;;9.75;;
21777;SDS011;11050;52.222;20.916;2023-08-17T10:08:26;12.60;;;9.10;;
21777;SDS011;11050;52.222;20.916;2023-08-17T10:10:56;11.13;;;9.05;;
21777;SDS011;11050;52.222;20.916;2023-08-17T10:13:42;13.25;;;9.45;;
21777;SDS011;11050;52.222;20.916;2023-08-17T10:16:50;12.88;;;9.90;;
21777;SDS011;11050;52.222;20.916;2023-08-17T10:19:24;13.73;;;8.05;;
21777;SDS011;11050;52.222;20.916;2023-08-17T10:22:20;11.70;;;7.63;;
21777;SDS011;11050;52.222;20.916;2023-08-17T10:25:10;9.95;;;8.80;;
21777;SDS011;11050;52.222;20.916;2023-08-17T10:27:38;12.13;;;8.55;;
21777;SDS011;11050;52.222;20.916;2023-08-17T10:30:08;13.13;;;7.65;;
21777;SDS011;11050;52.222;20.916;2023-08-17T10:32:35;13.65;;;8.02;;
21777;SDS011;11050;52.222;20.916;2023-08-17T10:35:01;10.23;;;7.72;;
21777;SDS011;11050;52.222;20.916;2023-08-17T10:37:29;7.55;;;6.53;;
21777;SDS011;11050;52.222;20.916;2023-08-17T10:39:56;11.25;;;7.35;;
21777;SDS011;11050;52.222;20.916;2023-08-17T10:42:32;12.82;;;7.90;;
21777;SDS011;11050;52.222;20.916;2023-08-17T10:45:01;10.93;;;7.60;;
21777;SDS011;11050;52.222;20.916;2023-08-17T10:47:47;8.90;;;7.13;;
21777;SDS011;11050;52.222;20.916;2023-08-17T10:50:22;20.27;;;8.10;;
21777;SDS011;11050;52.222;20.916;2023-08-17T10:52:50;11.82;;;7.95;;
21777;SDS011;11050;52.222;20.916;2023-08-17T10:55:20;14.70;;;7.60;;
21777;SDS011;11050;52.222;20.916;2023-08-17T10:58:06;8.40;;;5.47;;
21777;SDS011;11050;52.222;20.916;2023-08-17T11:00:39;13.15;;;5.95;;
21777;SDS011;11050;52.222;20.916;2023-08-17T11:03:08;8.68;;;5.15;;
21777;SDS011;11050;52.222;20.916;2023-08-17T11:05:45;7.60;;;5.25;;
21777;SDS011;11050;52.222;20.916;2023-08-17T11:11:15;7.43;;;5.18;;
21777;SDS011;11050;52.222;20.916;2023-08-17T11:13:42;8.07;;;5.82;;
21777;SDS011;11050;52.222;20.916;2023-08-17T11:16:11;10.75;;;5.68;;
21777;SDS011;11050;52.222;20.916;2023-08-17T11:18:39;6.32;;;5.53;;
21777;SDS011;11050;52.222;20.916;2023-08-17T11:21:09;15.25;;;5.45;;
21777;SDS011;11050;52.222;20.916;2023-08-17T11:23:36;7.93;;;5.70;;
21777;SDS011;11050;52.222;20.916;2023-08-17T11:26:03;10.70;;;5.65;;
21777;SDS011;11050;52.222;20.916;2023-08-17T11:28:30;5.57;;;4.93;;
21777;SDS011;11050;52.222;20.916;2023-08-17T11:31:01;7.18;;;4.63;;
21777;SDS011;11050;52.222;20.916;2023-08-17T11:33:29;5.57;;;3.90;;
21777;SDS011;11050;52.222;20.916;2023-08-17T11:36:00;11.50;;;4.30;;
21777;SDS011;11050;52.222;20.916;2023-08-17T11:38:31;11.68;;;4.00;;
21777;SDS011;11050;52.222;20.916;2023-08-17T11:40:59;4.75;;;3.55;;
21777;SDS011;11050;52.222;20.916;2023-08-17T11:43:25;4.47;;;2.88;;
21777;SDS011;11050;52.222;20.916;2023-08-17T11:45:55;5.75;;;3.38;;
21777;SDS011;11050;52.222;20.916;2023-08-17T11:48:23;4.97;;;3.40;;
21777;SDS011;11050;52.222;20.916;2023-08-17T11:50:49;5.47;;;3.50;;
21777;SDS011;11050;52.222;20.916;2023-08-17T11:53:16;5.03;;;3.80;;
21777;SDS011;11050;52.222;20.916;2023-08-17T11:55:42;4.47;;;3.42;;
21777;SDS011;11050;52.222;20.916;2023-08-17T11:58:08;7.78;;;4.35;;
21777;SDS011;11050;52.222;20.916;2023-08-17T12:00:34;5.10;;;4.05;;
21777;SDS011;11050;52.222;20.916;2023-08-17T12:03:04;7.85;;;4.03;;
21777;SDS011;11050;52.222;20.916;2023-08-17T12:05:31;4.05;;;3.60;;
21777;SDS011;11050;52.222;20.916;2023-08-17T12:07:58;4.45;;;3.50;;
21777;SDS011;11050;52.222;20.916;2023-08-17T12:10:33;5.70;;;3.92;;
21777;SDS011;11050;52.222;20.916;2023-08-17T12:12:59;9.05;;;4.38;;
21777;SDS011;11050;52.222;20.916;2023-08-17T12:15:32;10.77;;;4.50;;
21777;SDS011;11050;52.222;20.916;2023-08-17T12:18:01;11.95;;;4.88;;
21777;SDS011;11050;52.222;20.916;2023-08-17T12:20:29;11.90;;;4.80;;
21777;SDS011;11050;52.222;20.916;2023-08-17T12:22:57;9.48;;;4.20;;
21777;SDS011;11050;52.222;20.916;2023-08-17T12:25:23;8.52;;;3.70;;
21777;SDS011;11050;52.222;20.916;2023-08-17T12:27:51;4.88;;;3.58;;
21777;SDS011;11050;52.222;20.916;2023-08-17T12:30:27;4.28;;;3.60;;
21777;SDS011;11050;52.222;20.916;2023-08-17T12:32:57;5.15;;;3.78;;
21777;SDS011;11050;52.222;20.916;2023-08-17T12:35:24;7.10;;;4.03;;
21777;SDS011;11050;52.222;20.916;2023-08-17T12:37:54;10.43;;;4.28;;
21777;SDS011;11050;52.222;20.916;2023-08-17T12:40:20;9.40;;;4.18;;
21777;SDS011;11050;52.222;20.916;2023-08-17T12:42:47;8.23;;;3.97;;
21777;SDS011;11050;52.222;20.916;2023-08-17T12:45:13;5.50;;;3.72;;
21777;SDS011;11050;52.222;20.916;2023-08-17T12:47:40;5.93;;;3.33;;
21777;SDS011;11050;52.222;20.916;2023-08-17T12:50:07;6.88;;;3.75;;
21777;SDS011;11050;52.222;20.916;2023-08-17T12:52:34;5.18;;;3.42;;
21777;SDS011;11050;52.222;20.916;2023-08-17T12:54:59;6.32;;;3.50;;
21777;SDS011;11050;52.222;20.916;2023-08-17T12:57:25;8.82;;;4.00;;
21777;SDS011;11050;52.222;20.916;2023-08-17T12:59:51;8.43;;;4.18;;
21777;SDS011;11050;52.222;20.916;2023-08-17T13:02:19;5.88;;;3.97;;
21777;SDS011;11050;52.222;20.916;2023-08-17T13:04:45;4.03;;;3.28;;
21777;SDS011;11050;52.222;20.916;2023-08-17T13:07:11;3.97;;;3.45;;
21777;SDS011;11050;52.222;20.916;2023-08-17T13:09:37;10.43;;;3.50;;
21777;SDS011;11050;52.222;20.916;2023-08-17T13:12:02;7.80;;;3.97;;
21777;SDS011;11050;52.222;20.916;2023-08-17T13:14:28;7.38;;;3.70;;
21777;SDS011;11050;52.222;20.916;2023-08-17T13:16:54;5.68;;;3.63;;
21777;SDS011;11050;52.222;20.916;2023-08-17T13:19:20;9.13;;;4.00;;
21777;SDS011;11050;52.222;20.916;2023-08-17T13:21:45;4.68;;;3.85;;
21777;SDS011;11050;52.222;20.916;2023-08-17T13:24:12;3.88;;;3.47;;
21777;SDS011;11050;52.222;20.916;2023-08-17T13:26:38;3.83;;;3.53;;
21777;SDS011;11050;52.222;20.916;2023-08-17T13:29:03;5.63;;;3.85;;
21777;SDS011;11050;52.222;20.916;2023-08-17T13:31:30;7.13;;;4.03;;
21777;SDS011;11050;52.222;20.916;2023-08-17T13:33:56;8.70;;;3.75;;
21777;SDS011;11050;52.222;20.916;2023-08-17T13:36:21;10.93;;;4.22;;
21777;SDS011;11050;52.222;20.916;2023-08-17T13:38:47;6.15;;;3.88;;
21777;SDS011;11050;52.222;20.916;2023-08-17T13:41:13;6.55;;;4.20;;
21777;SDS011;11050;52.222;20.916;2023-08-17T13:43:38;5.25;;;4.13;;
21777;SDS011;11050;52.222;20.916;2023-08-17T13:46:05;10.38;;;4.25;;
21777;SDS011;11050;52.222;20.916;2023-08-17T13:48:31;5.82;;;4.10;;
21777;SDS011;11050;52.222;20.916;2023-08-17T13:50:56;6.70;;;3.97;;
21777;SDS011;11050;52.222;20.916;2023-08-17T13:53:22;4.72;;;4.20;;
21777;SDS011;11050;52.222;20.916;2023-08-17T13:55:48;5.50;;;4.28;;
21777;SDS011;11050;52.222;20.916;2023-08-17T13:58:13;5.97;;;4.30;;
21777;SDS011;11050;52.222;20.916;2023-08-17T14:00:40;5.22;;;4.53;;
21777;SDS011;11050;52.222;20.916;2023-08-17T14:03:06;7.22;;;4.05;;
21777;SDS011;11050;52.222;20.916;2023-08-17T14:05:32;5.65;;;3.83;;
21777;SDS011;11050;52.222;20.916;2023-08-17T14:07:58;9.93;;;4.70;;
21777;SDS011;11050;52.222;20.916;2023-08-17T14:10:24;4.85;;;3.95;;
21777;SDS011;11050;52.222;20.916;2023-08-17T14:12:50;6.00;;;4.53;;
21777;SDS011;11050;52.222;20.916;2023-08-17T14:15:15;9.70;;;4.95;;
21777;SDS011;11050;52.222;20.916;2023-08-17T14:17:41;6.32;;;5.07;;
21777;SDS011;11050;52.222;20.916;2023-08-17T14:20:07;7.47;;;5.18;;
21777;SDS011;11050;52.222;20.916;2023-08-17T14:22:33;7.95;;;4.88;;